< < Back
Terminal Aerodrome Forecast


Current Version              Previous Versions:   1  2  3  4  5  6  7  8  9  

Terminal Aerodrome Forecast

723
FTUS44 KBMX 041100
TAFMGM
TAF
KMGM 041123Z 0412/0512 18004KT P6SM OVC014
     FM041700 20010G18KT P6SM OVC015
     FM042300 17007KT P6SM BKN025
     FM050300 20004KT 6SM BR OVC007=

Latest METAR

812
SAUS80 KWBC 041600 RRA
MTRMGM
METAR KMGM 041553Z 10SM FEW065 24/17 A3004 RMK AO2 SLP172 T02440167


USA.gov is the U.S. government's official web portal to all federal, state and local government web resources and services.